sensor_id;sensor_type;location;lat;lon;timestamp;pressure;altitude;pressure_sealevel;temperature
68510;BMP180;55512;50.102;19.958;2022-12-18T00:01:02;99951.80;;;-3.70
68510;BMP180;55512;50.102;19.958;2022-12-18T00:03:35;99952.00;;;-3.80
68510;BMP180;55512;50.102;19.958;2022-12-18T00:06:02;99961.40;;;-3.84
68510;BMP180;55512;50.102;19.958;2022-12-18T00:08:28;99958.40;;;-3.84
68510;BMP180;55512;50.102;19.958;2022-12-18T00:10:54;99965.80;;;-3.80
68510;BMP180;55512;50.102;19.958;2022-12-18T00:13:19;99968.80;;;-3.70
68510;BMP180;55512;50.102;19.958;2022-12-18T00:15:45;99980.20;;;-3.70
68510;BMP180;55512;50.102;19.958;2022-12-18T00:18:10;99984.20;;;-3.60
68510;BMP180;55512;50.102;19.958;2022-12-18T00:20:38;99975.80;;;-3.54
68510;BMP180;55512;50.102;19.958;2022-12-18T00:23:05;99982.80;;;-3.50
68510;BMP180;55512;50.102;19.958;2022-12-18T00:25:36;99989.60;;;-3.50
68510;BMP180;55512;50.102;19.958;2022-12-18T00:28:03;99997.60;;;-3.60
68510;BMP180;55512;50.102;19.958;2022-12-18T00:30:29;99999.40;;;-3.70
68510;BMP180;55512;50.102;19.958;2022-12-18T00:32:55;100002.00;;;-3.70
68510;BMP180;55512;50.102;19.958;2022-12-18T00:35:21;99994.60;;;-3.70
68510;BMP180;55512;50.102;19.958;2022-12-18T00:37:47;99998.40;;;-3.70
68510;BMP180;55512;50.102;19.958;2022-12-18T00:40:12;99992.20;;;-3.72
68510;BMP180;55512;50.102;19.958;2022-12-18T00:42:38;100007.40;;;-3.80
68510;BMP180;55512;50.102;19.958;2022-12-18T00:45:30;100012.40;;;-3.80
68510;BMP180;55512;50.102;19.958;2022-12-18T00:47:56;100010.80;;;-3.80
68510;BMP180;55512;50.102;19.958;2022-12-18T00:50:24;100010.60;;;-3.80
68510;BMP180;55512;50.102;19.958;2022-12-18T00:52:50;100019.00;;;-3.80
68510;BMP180;55512;50.102;19.958;2022-12-18T00:55:16;100019.80;;;-3.80
68510;BMP180;55512;50.102;19.958;2022-12-18T00:57:42;100026.00;;;-3.80
68510;BMP180;55512;50.102;19.958;2022-12-18T01:00:12;100029.80;;;-3.80
68510;BMP180;55512;50.102;19.958;2022-12-18T01:02:38;100037.00;;;-3.80
68510;BMP180;55512;50.102;19.958;2022-12-18T01:05:04;100030.60;;;-3.88
68510;BMP180;55512;50.102;19.958;2022-12-18T01:07:30;100034.40;;;-3.90
68510;BMP180;55512;50.102;19.958;2022-12-18T01:09:56;100039.60;;;-3.90
68510;BMP180;55512;50.102;19.958;2022-12-18T01:12:21;100054.40;;;-3.90
68510;BMP180;55512;50.102;19.958;2022-12-18T01:14:47;100050.20;;;-4.00
68510;BMP180;55512;50.102;19.958;2022-12-18T01:17:12;100047.20;;;-4.00
68510;BMP180;55512;50.102;19.958;2022-12-18T01:19:38;100052.00;;;-4.00
68510;BMP180;55512;50.102;19.958;2022-12-18T01:22:03;100052.80;;;-4.02
68510;BMP180;55512;50.102;19.958;2022-12-18T01:24:29;100055.80;;;-4.10
68510;BMP180;55512;50.102;19.958;2022-12-18T01:26:54;100061.40;;;-4.10
68510;BMP180;55512;50.102;19.958;2022-12-18T01:29:19;100061.60;;;-4.10
68510;BMP180;55512;50.102;19.958;2022-12-18T01:31:45;100061.20;;;-4.10
68510;BMP180;55512;50.102;19.958;2022-12-18T01:34:10;100065.20;;;-4.10
68510;BMP180;55512;50.102;19.958;2022-12-18T01:36:39;100068.60;;;-4.10
68510;BMP180;55512;50.102;19.958;2022-12-18T01:39:10;100073.00;;;-4.10
68510;BMP180;55512;50.102;19.958;2022-12-18T01:41:37;100065.60;;;-4.10
68510;BMP180;55512;50.102;19.958;2022-12-18T01:45:03;100061.00;;;-4.10
68510;BMP180;55512;50.102;19.958;2022-12-18T01:49:59;100080.20;;;-4.10
68510;BMP180;55512;50.102;19.958;2022-12-18T01:52:31;100078.60;;;-4.10
68510;BMP180;55512;50.102;19.958;2022-12-18T01:54:59;100077.80;;;-4.10
68510;BMP180;55512;50.102;19.958;2022-12-18T01:57:27;100074.20;;;-4.10
68510;BMP180;55512;50.102;19.958;2022-12-18T02:00:00;100084.60;;;-4.10
68510;BMP180;55512;50.102;19.958;2022-12-18T02:02:29;100088.20;;;-4.00
68510;BMP180;55512;50.102;19.958;2022-12-18T02:04:55;100092.40;;;-4.00
68510;BMP180;55512;50.102;19.958;2022-12-18T02:07:49;100091.80;;;-4.00
68510;BMP180;55512;50.102;19.958;2022-12-18T02:10:28;100092.20;;;-3.90
68510;BMP180;55512;50.102;19.958;2022-12-18T02:16:16;100107.60;;;-3.90
68510;BMP180;55512;50.102;19.958;2022-12-18T02:18:51;100102.60;;;-3.92
68510;BMP180;55512;50.102;19.958;2022-12-18T02:27:31;100122.80;;;-4.00
68510;BMP180;55512;50.102;19.958;2022-12-18T02:30:00;100120.20;;;-4.00
68510;BMP180;55512;50.102;19.958;2022-12-18T02:32:35;100125.00;;;-3.90
68510;BMP180;55512;50.102;19.958;2022-12-18T02:35:05;100126.60;;;-3.90
68510;BMP180;55512;50.102;19.958;2022-12-18T02:37:33;100135.60;;;-3.90
68510;BMP180;55512;50.102;19.958;2022-12-18T02:40:02;100132.20;;;-3.90
68510;BMP180;55512;50.102;19.958;2022-12-18T02:42:28;100132.80;;;-3.80
68510;BMP180;55512;50.102;19.958;2022-12-18T02:44:54;100137.00;;;-3.76
68510;BMP180;55512;50.102;19.958;2022-12-18T02:47:24;100137.20;;;-3.70
68510;BMP180;55512;50.102;19.958;2022-12-18T03:00:43;100156.80;;;-3.60
68510;BMP180;55512;50.102;19.958;2022-12-18T03:03:29;100157.00;;;-3.60
68510;BMP180;55512;50.102;19.958;2022-12-18T03:06:16;100158.40;;;-3.60
68510;BMP180;55512;50.102;19.958;2022-12-18T03:08:48;100157.80;;;-3.60
68510;BMP180;55512;50.102;19.958;2022-12-18T03:11:16;100159.80;;;-3.50
68510;BMP180;55512;50.102;19.958;2022-12-18T03:14:06;100165.00;;;-3.42
68510;BMP180;55512;50.102;19.958;2022-12-18T03:16:35;100171.20;;;-3.40
68510;BMP180;55512;50.102;19.958;2022-12-18T03:19:07;100172.00;;;-3.30
68510;BMP180;55512;50.102;19.958;2022-12-18T03:21:43;100177.80;;;-3.30
68510;BMP180;55512;50.102;19.958;2022-12-18T03:24:11;100174.00;;;-3.30
68510;BMP180;55512;50.102;19.958;2022-12-18T03:26:44;100172.40;;;-3.30
68510;BMP180;55512;50.102;19.958;2022-12-18T03:29:46;100177.20;;;-3.30
68510;BMP180;55512;50.102;19.958;2022-12-18T03:32:25;100175.00;;;-3.30
68510;BMP180;55512;50.102;19.958;2022-12-18T03:34:58;100185.60;;;-3.34
68510;BMP180;55512;50.102;19.958;2022-12-18T03:37:24;100190.00;;;-3.40
68510;BMP180;55512;50.102;19.958;2022-12-18T03:39:50;100202.20;;;-3.40
68510;BMP180;55512;50.102;19.958;2022-12-18T03:48:46;100197.20;;;-3.50
68510;BMP180;55512;50.102;19.958;2022-12-18T03:51:10;100205.80;;;-3.60
68510;BMP180;55512;50.102;19.958;2022-12-18T03:53:41;100210.00;;;-3.60
68510;BMP180;55512;50.102;19.958;2022-12-18T03:56:10;100212.80;;;-3.50
68510;BMP180;55512;50.102;19.958;2022-12-18T03:58:40;100210.60;;;-3.40
68510;BMP180;55512;50.102;19.958;2022-12-18T04:01:10;100209.60;;;-3.40
68510;BMP180;55512;50.102;19.958;2022-12-18T04:03:38;100218.80;;;-3.30
68510;BMP180;55512;50.102;19.958;2022-12-18T04:06:05;100215.00;;;-3.30
68510;BMP180;55512;50.102;19.958;2022-12-18T04:08:32;100218.40;;;-3.30
68510;BMP180;55512;50.102;19.958;2022-12-18T04:11:01;100224.40;;;-3.30
68510;BMP180;55512;50.102;19.958;2022-12-18T04:13:35;100224.40;;;-3.26
68510;BMP180;55512;50.102;19.958;2022-12-18T04:16:01;100224.20;;;-3.30
68510;BMP180;55512;50.102;19.958;2022-12-18T04:18:26;100235.60;;;-3.30
68510;BMP180;55512;50.102;19.958;2022-12-18T04:20:52;100235.80;;;-3.32
68510;BMP180;55512;50.102;19.958;2022-12-18T04:23:18;100239.80;;;-3.40
68510;BMP180;55512;50.102;19.958;2022-12-18T04:25:43;100239.00;;;-3.42
68510;BMP180;55512;50.102;19.958;2022-12-18T04:28:09;100233.60;;;-3.50
68510;BMP180;55512;50.102;19.958;2022-12-18T04:30:35;100239.00;;;-3.44
68510;BMP180;55512;50.102;19.958;2022-12-18T04:33:00;100235.20;;;-3.50
68510;BMP180;55512;50.102;19.958;2022-12-18T04:35:26;100236.80;;;-3.54
68510;BMP180;55512;50.102;19.958;2022-12-18T04:37:51;100244.20;;;-3.60
68510;BMP180;55512;50.102;19.958;2022-12-18T04:40:17;100247.40;;;-3.60
68510;BMP180;55512;50.102;19.958;2022-12-18T04:42:42;100256.40;;;-3.60
68510;BMP180;55512;50.102;19.958;2022-12-18T04:45:08;100259.60;;;-3.60
68510;BMP180;55512;50.102;19.958;2022-12-18T04:47:34;100262.20;;;-3.60
68510;BMP180;55512;50.102;19.958;2022-12-18T04:49:59;100265.40;;;-3.60
68510;BMP180;55512;50.102;19.958;2022-12-18T04:52:25;100266.40;;;-3.60
68510;BMP180;55512;50.102;19.958;2022-12-18T04:54:51;100267.40;;;-3.50
68510;BMP180;55512;50.102;19.958;2022-12-18T04:57:16;100268.60;;;-3.50
68510;BMP180;55512;50.102;19.958;2022-12-18T04:59:44;100275.80;;;-3.50
68510;BMP180;55512;50.102;19.958;2022-12-18T05:02:09;100284.80;;;-3.50
68510;BMP180;55512;50.102;19.958;2022-12-18T05:04:35;100284.40;;;-3.52
68510;BMP180;55512;50.102;19.958;2022-12-18T05:07:00;100285.20;;;-3.58
68510;BMP180;55512;50.102;19.958;2022-12-18T05:09:26;100286.20;;;-3.60
68510;BMP180;55512;50.102;19.958;2022-12-18T05:11:51;100289.00;;;-3.60
68510;BMP180;55512;50.102;19.958;2022-12-18T05:14:17;100286.60;;;-3.60
68510;BMP180;55512;50.102;19.958;2022-12-18T05:16:42;100289.80;;;-3.62
68510;BMP180;55512;50.102;19.958;2022-12-18T05:19:08;100293.20;;;-3.70
68510;BMP180;55512;50.102;19.958;2022-12-18T05:21:33;100296.80;;;-3.70
68510;BMP180;55512;50.102;19.958;2022-12-18T05:23:59;100298.20;;;-3.70
68510;BMP180;55512;50.102;19.958;2022-12-18T05:26:24;100301.00;;;-3.70
68510;BMP180;55512;50.102;19.958;2022-12-18T05:28:50;100299.40;;;-3.60
68510;BMP180;55512;50.102;19.958;2022-12-18T05:31:15;100297.20;;;-3.60
68510;BMP180;55512;50.102;19.958;2022-12-18T05:33:41;100301.00;;;-3.60
68510;BMP180;55512;50.102;19.958;2022-12-18T05:36:08;100305.60;;;-3.50
68510;BMP180;55512;50.102;19.958;2022-12-18T05:38:37;100298.80;;;-3.50
68510;BMP180;55512;50.102;19.958;2022-12-18T05:41:03;100301.80;;;-3.50
68510;BMP180;55512;50.102;19.958;2022-12-18T05:43:29;100306.80;;;-3.50
68510;BMP180;55512;50.102;19.958;2022-12-18T05:45:54;100312.60;;;-3.50
68510;BMP180;55512;50.102;19.958;2022-12-18T05:48:21;100308.80;;;-3.50
68510;BMP180;55512;50.102;19.958;2022-12-18T05:50:48;100310.80;;;-3.60
68510;BMP180;55512;50.102;19.958;2022-12-18T05:53:18;100313.40;;;-3.60
68510;BMP180;55512;50.102;19.958;2022-12-18T05:55:45;100318.20;;;-3.60
68510;BMP180;55512;50.102;19.958;2022-12-18T05:58:12;100325.00;;;-3.60
68510;BMP180;55512;50.102;19.958;2022-12-18T06:00:44;100332.20;;;-3.62
68510;BMP180;55512;50.102;19.958;2022-12-18T06:03:11;100332.80;;;-3.70
68510;BMP180;55512;50.102;19.958;2022-12-18T06:05:44;100337.60;;;-3.70
68510;BMP180;55512;50.102;19.958;2022-12-18T06:08:12;100337.00;;;-3.60
68510;BMP180;55512;50.102;19.958;2022-12-18T06:10:38;100342.20;;;-3.60
68510;BMP180;55512;50.102;19.958;2022-12-18T06:13:05;100343.00;;;-3.56
68510;BMP180;55512;50.102;19.958;2022-12-18T06:15:31;100351.20;;;-3.50
68510;BMP180;55512;50.102;19.958;2022-12-18T06:17:56;100358.00;;;-3.46
68510;BMP180;55512;50.102;19.958;2022-12-18T06:20:22;100363.60;;;-3.40
68510;BMP180;55512;50.102;19.958;2022-12-18T06:22:48;100364.80;;;-3.40
68510;BMP180;55512;50.102;19.958;2022-12-18T06:25:14;100361.60;;;-3.40
68510;BMP180;55512;50.102;19.958;2022-12-18T06:27:40;100368.80;;;-3.40
68510;BMP180;55512;50.102;19.958;2022-12-18T06:30:10;100365.60;;;-3.40
68510;BMP180;55512;50.102;19.958;2022-12-18T06:32:36;100367.40;;;-3.36
68510;BMP180;55512;50.102;19.958;2022-12-18T06:35:01;100370.20;;;-3.40
68510;BMP180;55512;50.102;19.958;2022-12-18T06:37:27;100372.60;;;-3.40
68510;BMP180;55512;50.102;19.958;2022-12-18T06:39:53;100372.40;;;-3.42
68510;BMP180;55512;50.102;19.958;2022-12-18T06:42:22;100375.80;;;-3.50
68510;BMP180;55512;50.102;19.958;2022-12-18T06:44:47;100378.60;;;-3.52
68510;BMP180;55512;50.102;19.958;2022-12-18T06:47:12;100382.20;;;-3.54
68510;BMP180;55512;50.102;19.958;2022-12-18T06:49:38;100384.20;;;-3.60
68510;BMP180;55512;50.102;19.958;2022-12-18T06:52:03;100387.20;;;-3.60
68510;BMP180;55512;50.102;19.958;2022-12-18T06:54:29;100389.00;;;-3.60
68510;BMP180;55512;50.102;19.958;2022-12-18T06:56:55;100392.60;;;-3.58
68510;BMP180;55512;50.102;19.958;2022-12-18T06:59:21;100399.00;;;-3.50
68510;BMP180;55512;50.102;19.958;2022-12-18T07:01:46;100403.40;;;-3.50
68510;BMP180;55512;50.102;19.958;2022-12-18T07:04:12;100403.00;;;-3.48
68510;BMP180;55512;50.102;19.958;2022-12-18T07:06:37;100410.40;;;-3.40
68510;BMP180;55512;50.102;19.958;2022-12-18T07:09:03;100413.00;;;-3.30
68510;BMP180;55512;50.102;19.958;2022-12-18T07:11:28;100424.00;;;-3.20
68510;BMP180;55512;50.102;19.958;2022-12-18T07:13:54;100424.80;;;-3.20
68510;BMP180;55512;50.102;19.958;2022-12-18T07:16:21;100422.60;;;-3.20
68510;BMP180;55512;50.102;19.958;2022-12-18T07:18:47;100424.80;;;-3.20
68510;BMP180;55512;50.102;19.958;2022-12-18T07:21:18;100428.20;;;-3.26
68510;BMP180;55512;50.102;19.958;2022-12-18T07:23:44;100431.80;;;-3.30
68510;BMP180;55512;50.102;19.958;2022-12-18T07:26:13;100438.80;;;-3.30
68510;BMP180;55512;50.102;19.958;2022-12-18T07:28:41;100442.80;;;-3.28
68510;BMP180;55512;50.102;19.958;2022-12-18T07:31:17;100441.60;;;-3.30
68510;BMP180;55512;50.102;19.958;2022-12-18T07:33:44;100451.00;;;-3.20
68510;BMP180;55512;50.102;19.958;2022-12-18T07:36:10;100453.80;;;-3.20
68510;BMP180;55512;50.102;19.958;2022-12-18T07:38:37;100462.80;;;-3.20
68510;BMP180;55512;50.102;19.958;2022-12-18T07:41:09;100465.40;;;-3.24
68510;BMP180;55512;50.102;19.958;2022-12-18T07:43:35;100469.60;;;-3.26
68510;BMP180;55512;50.102;19.958;2022-12-18T07:46:02;100473.80;;;-3.26
68510;BMP180;55512;50.102;19.958;2022-12-18T07:48:29;100470.80;;;-3.20
68510;BMP180;55512;50.102;19.958;2022-12-18T07:51:02;100474.20;;;-3.20
68510;BMP180;55512;50.102;19.958;2022-12-18T07:53:30;100477.00;;;-3.20
68510;BMP180;55512;50.102;19.958;2022-12-18T07:55:57;100480.80;;;-3.18
68510;BMP180;55512;50.102;19.958;2022-12-18T07:58:23;100484.00;;;-3.20
68510;BMP180;55512;50.102;19.958;2022-12-18T08:00:49;100479.20;;;-3.18
68510;BMP180;55512;50.102;19.958;2022-12-18T08:03:15;100480.40;;;-3.06
68510;BMP180;55512;50.102;19.958;2022-12-18T08:05:41;100489.60;;;-3.00
68510;BMP180;55512;50.102;19.958;2022-12-18T08:08:06;100486.00;;;-2.90
68510;BMP180;55512;50.102;19.958;2022-12-18T08:10:31;100483.40;;;-2.90
68510;BMP180;55512;50.102;19.958;2022-12-18T08:12:57;100483.40;;;-2.90
68510;BMP180;55512;50.102;19.958;2022-12-18T08:15:23;100488.40;;;-2.90
68510;BMP180;55512;50.102;19.958;2022-12-18T08:17:49;100494.80;;;-2.80
68510;BMP180;55512;50.102;19.958;2022-12-18T08:20:14;100492.40;;;-2.72
68510;BMP180;55512;50.102;19.958;2022-12-18T08:22:41;100499.20;;;-2.72
68510;BMP180;55512;50.102;19.958;2022-12-18T08:25:08;100500.40;;;-2.70
68510;BMP180;55512;50.102;19.958;2022-12-18T08:27:33;100507.20;;;-2.70
68510;BMP180;55512;50.102;19.958;2022-12-18T08:29:59;100508.20;;;-2.70
68510;BMP180;55512;50.102;19.958;2022-12-18T08:32:25;100507.80;;;-2.70
68510;BMP180;55512;50.102;19.958;2022-12-18T08:34:51;100509.80;;;-2.70
68510;BMP180;55512;50.102;19.958;2022-12-18T08:37:17;100512.20;;;-2.70
68510;BMP180;55512;50.102;19.958;2022-12-18T08:39:42;100504.80;;;-2.70
68510;BMP180;55512;50.102;19.958;2022-12-18T08:42:07;100511.60;;;-2.70
68510;BMP180;55512;50.102;19.958;2022-12-18T08:44:52;100513.20;;;-2.70
68510;BMP180;55512;50.102;19.958;2022-12-18T08:47:17;100515.40;;;-2.60
68510;BMP180;55512;50.102;19.958;2022-12-18T08:49:43;100520.80;;;-2.60
68510;BMP180;55512;50.102;19.958;2022-12-18T08:52:08;100521.20;;;-2.60
68510;BMP180;55512;50.102;19.958;2022-12-18T08:54:34;100524.40;;;-2.50
68510;BMP180;55512;50.102;19.958;2022-12-18T08:56:59;100529.40;;;-2.50
68510;BMP180;55512;50.102;19.958;2022-12-18T08:59:25;100534.60;;;-2.40
68510;BMP180;55512;50.102;19.958;2022-12-18T09:01:54;100536.00;;;-2.40
68510;BMP180;55512;50.102;19.958;2022-12-18T09:04:20;100539.60;;;-2.34
68510;BMP180;55512;50.102;19.958;2022-12-18T09:06:46;100541.60;;;-2.32
68510;BMP180;55512;50.102;19.958;2022-12-18T09:09:11;100545.80;;;-2.34
68510;BMP180;55512;50.102;19.958;2022-12-18T09:11:37;100550.60;;;-2.38
68510;BMP180;55512;50.102;19.958;2022-12-18T09:14:03;100543.00;;;-2.40
68510;BMP180;55512;50.102;19.958;2022-12-18T09:16:29;100541.40;;;-2.40
68510;BMP180;55512;50.102;19.958;2022-12-18T09:18:55;100537.20;;;-2.50
68510;BMP180;55512;50.102;19.958;2022-12-18T09:21:27;100542.40;;;-2.50
68510;BMP180;55512;50.102;19.958;2022-12-18T09:23:55;100544.60;;;-2.50
68510;BMP180;55512;50.102;19.958;2022-12-18T09:26:22;100544.80;;;-2.50
68510;BMP180;55512;50.102;19.958;2022-12-18T09:28:49;100540.40;;;-2.50
68510;BMP180;55512;50.102;19.958;2022-12-18T09:31:15;100546.20;;;-2.50
68510;BMP180;55512;50.102;19.958;2022-12-18T09:33:41;100544.60;;;-2.54
68510;BMP180;55512;50.102;19.958;2022-12-18T09:36:11;100547.80;;;-2.60
68510;BMP180;55512;50.102;19.958;2022-12-18T09:38:37;100547.60;;;-2.60
68510;BMP180;55512;50.102;19.958;2022-12-18T09:43:56;100549.40;;;-2.60
68510;BMP180;55512;50.102;19.958;2022-12-18T09:46:30;100547.60;;;-2.60
68510;BMP180;55512;50.102;19.958;2022-12-18T09:49:07;100550.40;;;-2.56
68510;BMP180;55512;50.102;19.958;2022-12-18T09:51:54;100552.80;;;-2.50
68510;BMP180;55512;50.102;19.958;2022-12-18T09:54:30;100557.00;;;-2.50
68510;BMP180;55512;50.102;19.958;2022-12-18T09:56:57;100555.80;;;-2.60
68510;BMP180;55512;50.102;19.958;2022-12-18T09:59:36;100553.60;;;-2.60
68510;BMP180;55512;50.102;19.958;2022-12-18T10:02:23;100552.40;;;-2.60
68510;BMP180;55512;50.102;19.958;2022-12-18T10:05:06;100549.00;;;-2.50
68510;BMP180;55512;50.102;19.958;2022-12-18T10:10:55;100552.00;;;-2.40
68510;BMP180;55512;50.102;19.958;2022-12-18T10:13:52;100559.60;;;-2.40
68510;BMP180;55512;50.102;19.958;2022-12-18T10:16:37;100553.00;;;-2.30
68510;BMP180;55512;50.102;19.958;2022-12-18T10:22:22;100560.80;;;-2.00
68510;BMP180;55512;50.102;19.958;2022-12-18T10:27:42;100565.80;;;-1.88
68510;BMP180;55512;50.102;19.958;2022-12-18T10:30:15;100566.40;;;-1.90
68510;BMP180;55512;50.102;19.958;2022-12-18T10:32:41;100569.00;;;-2.00
68510;BMP180;55512;50.102;19.958;2022-12-18T10:35:26;100553.80;;;-1.98
68510;BMP180;55512;50.102;19.958;2022-12-18T10:43:36;100539.60;;;-1.86
68510;BMP180;55512;50.102;19.958;2022-12-18T10:46:14;100546.60;;;-1.80
68510;BMP180;55512;50.102;19.958;2022-12-18T10:51:27;100541.60;;;-1.70
68510;BMP180;55512;50.102;19.958;2022-12-18T10:54:22;100542.80;;;-1.60
68510;BMP180;55512;50.102;19.958;2022-12-18T10:56:48;100542.40;;;-1.60
68510;BMP180;55512;50.102;19.958;2022-12-18T10:59:16;100538.60;;;-1.40
68510;BMP180;55512;50.102;19.958;2022-12-18T11:01:51;100536.00;;;-1.30
68510;BMP180;55512;50.102;19.958;2022-12-18T11:04:31;100535.00;;;-1.22
68510;BMP180;55512;50.102;19.958;2022-12-18T11:07:03;100536.00;;;-1.14
68510;BMP180;55512;50.102;19.958;2022-12-18T11:09:36;100533.20;;;-1.10
68510;BMP180;55512;50.102;19.958;2022-12-18T11:12:25;100534.20;;;-1.10
68510;BMP180;55512;50.102;19.958;2022-12-18T11:14:53;100526.60;;;-1.10
68510;BMP180;55512;50.102;19.958;2022-12-18T11:17:34;100533.60;;;-1.04
68510;BMP180;55512;50.102;19.958;2022-12-18T11:20:23;100521.80;;;-1.10
68510;BMP180;55512;50.102;19.958;2022-12-18T11:23:12;100517.20;;;-1.10
68510;BMP180;55512;50.102;19.958;2022-12-18T11:25:39;100518.40;;;-1.10
68510;BMP180;55512;50.102;19.958;2022-12-18T11:28:34;100517.00;;;-1.10
68510;BMP180;55512;50.102;19.958;2022-12-18T11:31:29;100508.00;;;-1.20
68510;BMP180;55512;50.102;19.958;2022-12-18T11:34:01;100512.40;;;-1.20
68510;BMP180;55512;50.102;19.958;2022-12-18T11:36:42;100510.80;;;-1.30
68510;BMP180;55512;50.102;19.958;2022-12-18T11:39:19;100516.00;;;-1.34
68510;BMP180;55512;50.102;19.958;2022-12-18T11:42:00;100515.60;;;-1.40
68510;BMP180;55512;50.102;19.958;2022-12-18T11:44:49;100517.80;;;-1.40
68510;BMP180;55512;50.102;19.958;2022-12-18T11:47:22;100524.80;;;-1.40
68510;BMP180;55512;50.102;19.958;2022-12-18T11:49:51;100522.80;;;-1.48
68510;BMP180;55512;50.102;19.958;2022-12-18T11:52:31;100524.00;;;-1.40
68510;BMP180;55512;50.102;19.958;2022-12-18T11:55:01;100528.40;;;-1.40
68510;BMP180;55512;50.102;19.958;2022-12-18T11:57:55;100523.00;;;-1.40
68510;BMP180;55512;50.102;19.958;2022-12-18T12:00:25;100524.60;;;-1.40
68510;BMP180;55512;50.102;19.958;2022-12-18T12:11:15;100520.60;;;-1.70
68510;BMP180;55512;50.102;19.958;2022-12-18T12:19:36;100526.00;;;-1.80
68510;BMP180;55512;50.102;19.958;2022-12-18T12:39:28;100539.40;;;-1.90
68510;BMP180;55512;50.102;19.958;2022-12-18T12:41:55;100546.80;;;-1.90
68510;BMP180;55512;50.102;19.958;2022-12-18T12:44:54;100552.60;;;-2.00
68510;BMP180;55512;50.102;19.958;2022-12-18T12:47:39;100561.40;;;-1.92
68510;BMP180;55512;50.102;19.958;2022-12-18T12:50:15;100559.20;;;-2.00
68510;BMP180;55512;50.102;19.958;2022-12-18T12:52:46;100563.80;;;-2.00
68510;BMP180;55512;50.102;19.958;2022-12-18T12:55:20;100562.60;;;-2.00
68510;BMP180;55512;50.102;19.958;2022-12-18T13:06:49;100573.80;;;-2.04
68510;BMP180;55512;50.102;19.958;2022-12-18T13:09:15;100579.40;;;-2.00
68510;BMP180;55512;50.102;19.958;2022-12-18T13:11:44;100581.40;;;-2.00
68510;BMP180;55512;50.102;19.958;2022-12-18T13:14:40;100581.20;;;-2.00
68510;BMP180;55512;50.102;19.958;2022-12-18T13:19:52;100578.80;;;-1.90
68510;BMP180;55512;50.102;19.958;2022-12-18T13:22:45;100582.20;;;-1.90
68510;BMP180;55512;50.102;19.958;2022-12-18T13:25:35;100587.40;;;-1.90
68510;BMP180;55512;50.102;19.958;2022-12-18T13:28:14;100585.00;;;-1.80
68510;BMP180;55512;50.102;19.958;2022-12-18T13:30:57;100590.40;;;-1.80
68510;BMP180;55512;50.102;19.958;2022-12-18T13:36:30;100598.60;;;-1.80
68510;BMP180;55512;50.102;19.958;2022-12-18T13:41:42;100601.00;;;-1.80
68510;BMP180;55512;50.102;19.958;2022-12-18T13:44:38;100601.80;;;-1.80
68510;BMP180;55512;50.102;19.958;2022-12-18T13:47:34;100608.80;;;-1.80
68510;BMP180;55512;50.102;19.958;2022-12-18T13:50:09;100612.20;;;-1.80
68510;BMP180;55512;50.102;19.958;2022-12-18T13:52:38;100616.20;;;-1.80
68510;BMP180;55512;50.102;19.958;2022-12-18T13:55:16;100621.40;;;-1.80
68510;BMP180;55512;50.102;19.958;2022-12-18T13:57:43;100620.80;;;-1.80
68510;BMP180;55512;50.102;19.958;2022-12-18T14:00:29;100621.60;;;-1.80
68510;BMP180;55512;50.102;19.958;2022-12-18T14:02:56;100621.40;;;-1.80
68510;BMP180;55512;50.102;19.958;2022-12-18T14:05:29;100623.80;;;-1.90
68510;BMP180;55512;50.102;19.958;2022-12-18T14:08:12;100622.40;;;-1.90
68510;BMP180;55512;50.102;19.958;2022-12-18T14:10:45;100627.60;;;-2.00
68510;BMP180;55512;50.102;19.958;2022-12-18T14:15:48;100626.40;;;-2.10
68510;BMP180;55512;50.102;19.958;2022-12-18T14:18:28;100631.00;;;-2.18
68510;BMP180;55512;50.102;19.958;2022-12-18T14:20:59;100635.80;;;-2.30
68510;BMP180;55512;50.102;19.958;2022-12-18T14:23:28;100633.60;;;-2.40
68510;BMP180;55512;50.102;19.958;2022-12-18T14:25:54;100632.60;;;-2.50
68510;BMP180;55512;50.102;19.958;2022-12-18T14:28:20;100635.00;;;-2.60
68510;BMP180;55512;50.102;19.958;2022-12-18T14:30:49;100641.80;;;-2.70
68510;BMP180;55512;50.102;19.958;2022-12-18T14:33:24;100639.40;;;-2.80
68510;BMP180;55512;50.102;19.958;2022-12-18T14:36:02;100639.60;;;-2.90
68510;BMP180;55512;50.102;19.958;2022-12-18T14:38:29;100635.00;;;-3.00
68510;BMP180;55512;50.102;19.958;2022-12-18T14:43:24;100637.40;;;-3.20
68510;BMP180;55512;50.102;19.958;2022-12-18T14:45:51;100646.60;;;-3.32
68510;BMP180;55512;50.102;19.958;2022-12-18T14:48:37;100642.80;;;-3.44
68510;BMP180;55512;50.102;19.958;2022-12-18T14:51:16;100642.40;;;-3.60
68510;BMP180;55512;50.102;19.958;2022-12-18T14:53:46;100642.60;;;-3.70
68510;BMP180;55512;50.102;19.958;2022-12-18T14:56:25;100646.20;;;-3.80
68510;BMP180;55512;50.102;19.958;2022-12-18T14:59:02;100647.80;;;-3.92
68510;BMP180;55512;50.102;19.958;2022-12-18T15:04:30;100642.00;;;-4.20
68510;BMP180;55512;50.102;19.958;2022-12-18T15:07:05;100635.40;;;-4.40
68510;BMP180;55512;50.102;19.958;2022-12-18T15:09:31;100631.40;;;-4.50
68510;BMP180;55512;50.102;19.958;2022-12-18T15:12:01;100631.00;;;-4.64
68510;BMP180;55512;50.102;19.958;2022-12-18T15:16:57;100637.40;;;-4.90
68510;BMP180;55512;50.102;19.958;2022-12-18T15:19:36;100635.80;;;-5.00
68510;BMP180;55512;50.102;19.958;2022-12-18T15:22:02;100638.20;;;-5.10
68510;BMP180;55512;50.102;19.958;2022-12-18T15:24:31;100644.20;;;-5.10
68510;BMP180;55512;50.102;19.958;2022-12-18T15:26:59;100642.40;;;-5.20
68510;BMP180;55512;50.102;19.958;2022-12-18T15:29:25;100641.80;;;-5.30
68510;BMP180;55512;50.102;19.958;2022-12-18T15:32:05;100642.60;;;-5.30
68510;BMP180;55512;50.102;19.958;2022-12-18T15:34:40;100644.20;;;-5.40
68510;BMP180;55512;50.102;19.958;2022-12-18T15:37:07;100649.40;;;-5.50
68510;BMP180;55512;50.102;19.958;2022-12-18T15:39:33;100653.60;;;-5.58
68510;BMP180;55512;50.102;19.958;2022-12-18T15:42:01;100661.00;;;-5.62
68510;BMP180;55512;50.102;19.958;2022-12-18T15:44:45;100661.00;;;-5.70
68510;BMP180;55512;50.102;19.958;2022-12-18T15:47:12;100664.40;;;-5.78
68510;BMP180;55512;50.102;19.958;2022-12-18T15:49:39;100668.60;;;-5.84
68510;BMP180;55512;50.102;19.958;2022-12-18T15:52:05;100665.60;;;-5.92